»·PEaware :: N143VT KSAC-KLAX

N143VT :: KSAC-KLAX

FLIGHT INFORMATION

Flight Status: Arrived
Operator: Privately registered:
United States
More flights under this callsign
Pilot: Anonymous 16492 (16492)
Aircraft: ECLIPSE 500
(EA50)
More flights by this aircraft type
Origin: KSAC Sacramento Executive
United States
Destination: KLAX Los Angeles Intl
United States
More flights between these airports :: More routes between these airports
Route: SAC HNNRY T261 WINDY T263 PXN BURGL IRNMN2
File this flight plan on PilotEdge
Remarks:
Altitude:
(Current/Filed)
34,000ft
Speed:
(Current/Filed)
330kts
Departed: 24-May-18 06:32 PM
Arrived: 24-May-18 08:01 PM
Distance/Time
Traveled:
313nm/1:29
Distance/Time
To Go:
Arrived

Flight Plot

Page will automatically refresh every two minutes.

Flight plan parsing failed; only flown route is shown


Map Options




Map Legend


Flown Route
Filed Route
Departure Airport
Arrival Airport
Navaid (VOR, NDB)
Fix

Horizontal Profiles

Position Reports

Time Latitude Longitude Heading Altitude Ground
Speed
24-May-18 18:17 38.511659 -121.498539 211 26ft 0kts
24-May-18 18:18 38.511659 -121.498539 211 26ft 0kts
24-May-18 18:19 38.511659 -121.498539 211 26ft 0kts
24-May-18 18:20 38.511659 -121.498539 211 26ft 0kts
24-May-18 18:21 38.511659 -121.498539 211 26ft 0kts
24-May-18 18:22 38.511659 -121.498539 211 26ft 0kts
24-May-18 18:23 38.511659 -121.498539 211 26ft 0kts
24-May-18 18:24 38.511659 -121.498539 211 26ft 0kts
24-May-18 18:25 38.511659 -121.498539 211 26ft 0kts
24-May-18 18:26 38.511659 -121.498539 211 26ft 0kts
24-May-18 18:27 38.511659 -121.498539 211 26ft 0kts
24-May-18 18:28 38.511409 -121.497837 99 26ft 5kts
24-May-18 18:29 38.514693 -121.494517 34 26ft 29kts
24-May-18 18:30 38.519181 -121.490342 104 26ft 0kts
24-May-18 18:31 38.519074 -121.489678 114 26ft 11kts
24-May-18 18:32 38.511223 -121.495677 213 330ft 75kts
24-May-18 18:33 38.487772 -121.492504 164 1747ft 125kts
24-May-18 18:34 38.446634 -121.470202 163 3679ft 176kts
24-May-18 18:35 38.402950 -121.451765 173 6567ft 166kts
24-May-18 18:36 38.357916 -121.441306 170 9035ft 170kts
24-May-18 18:37 38.311464 -121.430177 167 11222ft 178kts
24-May-18 18:38 38.262616 -121.418263 167 13297ft 183kts
24-May-18 18:39 38.212473 -121.405973 167 15242ft 187kts
24-May-18 18:40 38.161685 -121.393535 167 17021ft 191kts
24-May-18 18:41 38.109721 -121.380823 166 18656ft 195kts
24-May-18 18:42 38.057384 -121.368039 166 20157ft 198kts
24-May-18 18:43 38.004103 -121.355042 166 21541ft 202kts
24-May-18 18:44 37.949486 -121.341739 166 22836ft 205kts
24-May-18 18:45 37.894973 -121.328482 166 24016ft 208kts
24-May-18 18:46 37.839220 -121.314940 166 25168ft 211kts
24-May-18 18:47 37.783257 -121.301366 166 26228ft 214kts
24-May-18 18:48 37.726674 -121.287674 166 27202ft 217kts
24-May-18 18:49 37.668529 -121.273617 167 28125ft 220kts
24-May-18 18:50 37.610432 -121.259611 166 29166ft 215kts
24-May-18 18:51 37.555110 -121.246274 166 30096ft 211kts
24-May-18 18:52 37.499620 -121.232922 166 30851ft 213kts
24-May-18 18:53 37.442536 -121.219213 166 31559ft 216kts
24-May-18 18:54 37.384919 -121.205404 166 32224ft 218kts
24-May-18 18:55 37.327448 -121.191624 166 32819ft 220kts
24-May-18 18:56 37.271982 -121.166718 152 33381ft 221kts
24-May-18 18:57 37.219238 -121.130434 152 33920ft 223kts
24-May-18 18:58 37.164235 -121.092098 152 34031ft 240kts
24-May-18 18:59 37.104813 -121.050412 152 34033ft 257kts
24-May-18 19:00 37.043172 -121.007058 155 34045ft 270kts
24-May-18 19:01 36.978171 -120.961516 158 34074ft 282kts
24-May-18 19:02 36.909349 -120.913583 158 34073ft 293kts
24-May-18 19:03 36.840113 -120.865390 158 34064ft 304kts
24-May-18 19:04 36.767069 -120.814564 158 34037ft 313kts
24-May-18 19:05 36.691771 -120.763509 159 34011ft 318kts
24-May-18 19:06 36.614099 -120.713050 159 33987ft 323kts
24-May-18 19:07 36.535177 -120.661991 159 33982ft 325kts
24-May-18 19:08 36.456463 -120.611056 163 34018ft 325kts
24-May-18 19:09 36.377138 -120.560113 163 34035ft 325kts
24-May-18 19:10 36.298203 -120.509469 163 34035ft 326kts
24-May-18 19:11 36.218733 -120.458541 163 34072ft 323kts
24-May-18 19:12 36.141031 -120.408897 163 34096ft 321kts
24-May-18 19:13 36.063611 -120.359555 163 34074ft 321kts
24-May-18 19:14 35.986758 -120.310661 164 34040ft 320kts
24-May-18 19:15 35.910151 -120.261978 164 34063ft 311kts
24-May-18 19:16 35.835487 -120.214703 164 34116ft 311kts
24-May-18 19:17 35.773167 -120.175309 164 34110ft 312kts
24-May-18 19:18 35.697490 -120.127584 164 34121ft 311kts
24-May-18 19:19 35.634861 -120.083501 160 34129ft 317kts
24-May-18 19:20 35.569896 -120.034972 160 34127ft 317kts
24-May-18 19:21 35.497723 -119.980792 160 34126ft 316kts
24-May-18 19:22 35.425061 -119.926231 160 34105ft 315kts
24-May-18 19:23 35.350873 -119.870628 160 34083ft 317kts
24-May-18 19:24 35.277736 -119.811928 155 33942ft 328kts
24-May-18 19:25 35.204749 -119.745086 154 32441ft 315kts
24-May-18 19:26 35.136200 -119.681594 153 30935ft 324kts
24-May-18 19:27 35.066893 -119.617095 152 29435ft 313kts
24-May-18 19:28 35.001490 -119.556311 151 27971ft 307kts
24-May-18 19:29 34.934934 -119.494564 151 26454ft 302kts
24-May-18 19:30 34.869888 -119.435790 152 25506ft 310kts
24-May-18 19:31 34.805414 -119.377998 152 24089ft 287kts
24-May-18 19:32 34.749627 -119.328277 152 23118ft 280kts
24-May-18 19:33 34.685067 -119.271787 152 21901ft 285kts
24-May-18 19:34 34.623762 -119.218408 151 20567ft 275kts
24-May-18 19:35 34.574430 -119.173568 149 19771ft 291kts
24-May-18 19:36 34.508823 -119.108082 144 18825ft 336kts
24-May-18 19:37 34.437141 -119.048961 152 16958ft 318kts
24-May-18 19:38 34.368702 -118.985590 157 14788ft 314kts
24-May-18 19:39 34.295576 -118.942915 139 13884ft 292kts
24-May-18 19:40 34.235712 -118.879485 144 12413ft 296kts
24-May-18 19:41 34.174766 -118.820831 145 11991ft 270kts
24-May-18 19:42 34.115801 -118.757183 141 11159ft 296kts
24-May-18 19:43 34.059877 -118.696430 141 9665ft 270kts
24-May-18 19:44 34.028262 -118.617739 102 8707ft 288kts
24-May-18 19:45 34.017921 -118.528986 100 7989ft 256kts
24-May-18 19:46 34.013017 -118.449572 81 7688ft 257kts
24-May-18 19:47 34.025333 -118.370841 81 6227ft 239kts
24-May-18 19:48 34.034457 -118.312855 81 5049ft 235kts
24-May-18 19:49 34.045203 -118.238858 81 3591ft 213kts
24-May-18 19:50 34.054014 -118.168882 81 3588ft 227kts
24-May-18 19:51 34.060279 -118.095941 105 3593ft 225kts
24-May-18 19:52 34.009471 -118.078256 198 3587ft 186kts
24-May-18 19:53 33.975683 -118.123114 231 3588ft 183kts
24-May-18 19:54 33.958515 -118.176379 261 3454ft 162kts
24-May-18 19:55 33.953605 -118.224976 262 2725ft 138kts
24-May-18 19:56 33.948967 -118.270343 262 1980ft 122kts
24-May-18 19:57 33.945273 -118.306518 263 1390ft 103kts
24-May-18 19:58 33.941810 -118.340407 263 852ft 102kts
24-May-18 19:59 33.938247 -118.373956 263 326ft 100kts
24-May-18 20:00 33.935671 -118.399324 262 128ft 46kts
24-May-18 20:01 33.934502 -118.398670 81 128ft 32kts
24-May-18 20:02 33.934253 -118.394086 292 128ft 3kts
24-May-18 20:03 33.934180 -118.394234 187 128ft 0kts
24-May-18 20:04 33.934179 -118.394233 188 127ft 0kts
24-May-18 20:05 33.934179 -118.394233 188 127ft 0kts
24-May-18 20:06 33.934179 -118.394233 188 127ft 0kts
24-May-18 20:07 33.934179 -118.394233 188 127ft 0kts

Navigation Log

Ident Type
Flight plan parsing failed, navigation log unavailable